sensor_id;sensor_type;location;lat;lon;timestamp;pressure;altitude;pressure_sealevel;temperature;humidity
30554;BME280;17335;50.720;7.452;2023-10-13T00:01:06;99216.00;;;16.01;100.00
30554;BME280;17335;50.720;7.452;2023-10-13T00:03:34;99217.03;;;16.00;100.00
30554;BME280;17335;50.720;7.452;2023-10-13T00:06:02;99210.53;;;16.09;100.00
30554;BME280;17335;50.720;7.452;2023-10-13T00:08:29;99219.72;;;16.00;100.00
30554;BME280;17335;50.720;7.452;2023-10-13T00:10:56;99213.94;;;16.03;100.00
30554;BME280;17335;50.720;7.452;2023-10-13T00:13:29;99214.13;;;16.02;100.00
30554;BME280;17335;50.720;7.452;2023-10-13T00:16:14;99211.06;;;16.05;100.00
30554;BME280;17335;50.720;7.452;2023-10-13T00:18:44;99202.47;;;16.01;100.00
30554;BME280;17335;50.720;7.452;2023-10-13T00:21:11;99214.59;;;16.05;100.00
30554;BME280;17335;50.720;7.452;2023-10-13T00:23:41;99200.88;;;16.07;100.00
30554;BME280;17335;50.720;7.452;2023-10-13T00:26:25;99206.31;;;16.07;100.00
30554;BME280;17335;50.720;7.452;2023-10-13T00:28:59;99196.50;;;16.06;100.00
30554;BME280;17335;50.720;7.452;2023-10-13T00:31:42;99203.78;;;16.05;100.00
30554;BME280;17335;50.720;7.452;2023-10-13T00:34:10;99192.28;;;16.03;100.00
30554;BME280;17335;50.720;7.452;2023-10-13T00:36:52;99183.44;;;16.09;100.00
30554;BME280;17335;50.720;7.452;2023-10-13T00:39:41;99192.13;;;16.05;100.00
30554;BME280;17335;50.720;7.452;2023-10-13T00:42:13;99192.03;;;16.13;100.00
30554;BME280;17335;50.720;7.452;2023-10-13T00:44:57;99183.38;;;16.18;100.00
30554;BME280;17335;50.720;7.452;2023-10-13T00:47:24;99178.50;;;16.13;100.00
30554;BME280;17335;50.720;7.452;2023-10-13T00:50:04;99163.84;;;16.07;100.00
30554;BME280;17335;50.720;7.452;2023-10-13T00:52:32;99167.66;;;16.13;100.00
30554;BME280;17335;50.720;7.452;2023-10-13T00:55:02;99166.63;;;15.99;100.00
30554;BME280;17335;50.720;7.452;2023-10-13T00:57:28;99169.97;;;16.01;100.00
30554;BME280;17335;50.720;7.452;2023-10-13T00:59:58;99172.03;;;15.99;100.00
30554;BME280;17335;50.720;7.452;2023-10-13T01:02:25;99158.38;;;15.92;100.00
30554;BME280;17335;50.720;7.452;2023-10-13T01:05:02;99168.69;;;15.97;100.00
30554;BME280;17335;50.720;7.452;2023-10-13T01:07:29;99167.16;;;15.94;100.00
30554;BME280;17335;50.720;7.452;2023-10-13T01:09:56;99171.84;;;16.01;100.00
30554;BME280;17335;50.720;7.452;2023-10-13T01:12:23;99169.50;;;15.98;100.00
30554;BME280;17335;50.720;7.452;2023-10-13T01:14:52;99159.81;;;16.03;100.00
30554;BME280;17335;50.720;7.452;2023-10-13T01:17:18;99162.22;;;15.98;100.00
30554;BME280;17335;50.720;7.452;2023-10-13T01:19:45;99165.97;;;15.97;100.00
30554;BME280;17335;50.720;7.452;2023-10-13T01:22:15;99151.09;;;15.93;100.00
30554;BME280;17335;50.720;7.452;2023-10-13T01:24:42;99150.44;;;15.91;100.00
30554;BME280;17335;50.720;7.452;2023-10-13T01:27:08;99138.78;;;15.90;100.00
30554;BME280;17335;50.720;7.452;2023-10-13T01:29:48;99143.16;;;15.91;100.00
30554;BME280;17335;50.720;7.452;2023-10-13T01:32:21;99140.47;;;15.91;100.00
30554;BME280;17335;50.720;7.452;2023-10-13T01:34:49;99137.56;;;15.93;100.00
30554;BME280;17335;50.720;7.452;2023-10-13T01:37:16;99139.97;;;15.88;100.00
30554;BME280;17335;50.720;7.452;2023-10-13T01:39:43;99144.09;;;15.99;100.00
30554;BME280;17335;50.720;7.452;2023-10-13T01:42:13;99135.63;;;15.87;100.00
30554;BME280;17335;50.720;7.452;2023-10-13T01:44:46;99140.53;;;15.83;100.00
30554;BME280;17335;50.720;7.452;2023-10-13T01:47:12;99133.56;;;15.89;100.00
30554;BME280;17335;50.720;7.452;2023-10-13T01:49:39;99129.44;;;15.93;100.00
30554;BME280;17335;50.720;7.452;2023-10-13T01:52:09;99128.97;;;15.89;100.00
30554;BME280;17335;50.720;7.452;2023-10-13T01:54:38;99124.41;;;15.90;100.00
30554;BME280;17335;50.720;7.452;2023-10-13T01:57:07;99123.38;;;15.91;100.00
30554;BME280;17335;50.720;7.452;2023-10-13T01:59:34;99117.13;;;15.90;100.00
30554;BME280;17335;50.720;7.452;2023-10-13T02:02:11;99113.56;;;15.90;100.00
30554;BME280;17335;50.720;7.452;2023-10-13T02:04:41;99119.44;;;15.93;100.00
30554;BME280;17335;50.720;7.452;2023-10-13T02:07:08;99119.84;;;15.90;100.00
30554;BME280;17335;50.720;7.452;2023-10-13T02:09:41;99111.53;;;15.92;100.00
30554;BME280;17335;50.720;7.452;2023-10-13T02:12:09;99105.94;;;16.08;100.00
30554;BME280;17335;50.720;7.452;2023-10-13T02:14:36;99114.13;;;16.00;100.00
30554;BME280;17335;50.720;7.452;2023-10-13T02:17:04;99113.50;;;15.98;100.00
30554;BME280;17335;50.720;7.452;2023-10-13T02:19:40;99107.59;;;15.94;100.00
30554;BME280;17335;50.720;7.452;2023-10-13T02:22:11;99094.63;;;15.90;100.00
30554;BME280;17335;50.720;7.452;2023-10-13T02:24:38;99091.91;;;15.90;100.00
30554;BME280;17335;50.720;7.452;2023-10-13T02:27:07;99088.66;;;15.94;100.00
30554;BME280;17335;50.720;7.452;2023-10-13T02:29:40;99090.34;;;15.96;100.00
30554;BME280;17335;50.720;7.452;2023-10-13T02:32:07;99077.47;;;15.98;100.00
30554;BME280;17335;50.720;7.452;2023-10-13T02:34:45;99079.06;;;15.92;100.00
30554;BME280;17335;50.720;7.452;2023-10-13T02:37:11;99078.56;;;15.88;100.00
30554;BME280;17335;50.720;7.452;2023-10-13T02:39:40;99076.34;;;15.92;100.00
30554;BME280;17335;50.720;7.452;2023-10-13T02:42:10;99073.16;;;15.88;100.00
30554;BME280;17335;50.720;7.452;2023-10-13T02:44:50;99070.84;;;15.85;100.00
30554;BME280;17335;50.720;7.452;2023-10-13T02:47:17;99068.22;;;15.92;100.00
30554;BME280;17335;50.720;7.452;2023-10-13T02:49:45;99064.19;;;15.88;100.00
30554;BME280;17335;50.720;7.452;2023-10-13T02:52:14;99063.19;;;15.89;100.00
30554;BME280;17335;50.720;7.452;2023-10-13T02:54:42;99063.19;;;15.89;100.00
30554;BME280;17335;50.720;7.452;2023-10-13T02:57:17;99058.59;;;15.89;100.00
30554;BME280;17335;50.720;7.452;2023-10-13T02:59:44;99060.84;;;16.01;100.00
30554;BME280;17335;50.720;7.452;2023-10-13T03:02:15;99049.28;;;15.92;100.00
30554;BME280;17335;50.720;7.452;2023-10-13T03:04:57;99048.16;;;16.01;100.00
30554;BME280;17335;50.720;7.452;2023-10-13T03:07:26;99048.31;;;16.00;100.00
30554;BME280;17335;50.720;7.452;2023-10-13T03:09:56;99046.00;;;15.97;100.00
30554;BME280;17335;50.720;7.452;2023-10-13T03:12:26;99040.22;;;16.00;100.00
30554;BME280;17335;50.720;7.452;2023-10-13T03:14:53;99046.09;;;16.03;100.00
30554;BME280;17335;50.720;7.452;2023-10-13T03:17:37;99044.03;;;16.05;100.00
30554;BME280;17335;50.720;7.452;2023-10-13T03:20:10;99043.66;;;16.08;100.00
30554;BME280;17335;50.720;7.452;2023-10-13T03:22:48;99041.59;;;16.10;100.00
30554;BME280;17335;50.720;7.452;2023-10-13T03:25:18;99039.06;;;16.09;100.00
30554;BME280;17335;50.720;7.452;2023-10-13T03:27:51;99033.09;;;16.13;100.00
30554;BME280;17335;50.720;7.452;2023-10-13T03:30:19;99031.81;;;16.09;100.00
30554;BME280;17335;50.720;7.452;2023-10-13T03:32:47;99029.25;;;16.23;100.00
30554;BME280;17335;50.720;7.452;2023-10-13T03:35:21;99027.59;;;16.22;100.00
30554;BME280;17335;50.720;7.452;2023-10-13T03:37:54;99023.66;;;16.24;100.00
30554;BME280;17335;50.720;7.452;2023-10-13T03:40:21;99028.22;;;16.24;100.00
30554;BME280;17335;50.720;7.452;2023-10-13T03:42:50;99029.16;;;16.31;100.00
30554;BME280;17335;50.720;7.452;2023-10-13T03:48:10;99015.59;;;16.31;100.00
30554;BME280;17335;50.720;7.452;2023-10-13T03:50:57;99015.88;;;16.36;100.00
30554;BME280;17335;50.720;7.452;2023-10-13T03:53:30;99013.81;;;16.38;100.00
30554;BME280;17335;50.720;7.452;2023-10-13T03:56:06;99005.91;;;16.37;100.00
30554;BME280;17335;50.720;7.452;2023-10-13T03:58:41;98998.78;;;16.36;100.00
30554;BME280;17335;50.720;7.452;2023-10-13T04:01:21;98983.38;;;16.36;100.00
30554;BME280;17335;50.720;7.452;2023-10-13T04:03:58;98988.94;;;16.49;100.00
30554;BME280;17335;50.720;7.452;2023-10-13T04:06:38;98973.06;;;16.46;100.00
30554;BME280;17335;50.720;7.452;2023-10-13T04:09:15;98967.19;;;16.43;100.00
30554;BME280;17335;50.720;7.452;2023-10-13T04:11:57;98966.63;;;16.47;100.00
30554;BME280;17335;50.720;7.452;2023-10-13T04:17:11;98947.59;;;16.41;100.00
30554;BME280;17335;50.720;7.452;2023-10-13T04:19:42;98941.19;;;16.48;100.00
30554;BME280;17335;50.720;7.452;2023-10-13T04:22:27;98936.00;;;16.47;100.00
30554;BME280;17335;50.720;7.452;2023-10-13T04:25:19;98942.94;;;16.56;100.00
30554;BME280;17335;50.720;7.452;2023-10-13T04:28:18;98940.75;;;16.45;100.00
30554;BME280;17335;50.720;7.452;2023-10-13T04:30:53;98933.06;;;16.48;100.00
30554;BME280;17335;50.720;7.452;2023-10-13T04:36:15;98940.53;;;16.46;100.00
30554;BME280;17335;50.720;7.452;2023-10-13T04:38:45;98936.19;;;16.45;100.00
30554;BME280;17335;50.720;7.452;2023-10-13T04:41:38;98936.88;;;16.54;100.00
30554;BME280;17335;50.720;7.452;2023-10-13T04:44:13;98942.69;;;16.51;100.00
30554;BME280;17335;50.720;7.452;2023-10-13T04:46:57;98945.22;;;16.53;100.00
30554;BME280;17335;50.720;7.452;2023-10-13T04:49:29;98940.25;;;16.56;100.00
30554;BME280;17335;50.720;7.452;2023-10-13T04:52:03;98942.75;;;16.58;100.00
30554;BME280;17335;50.720;7.452;2023-10-13T04:54:37;98941.94;;;16.57;100.00
30554;BME280;17335;50.720;7.452;2023-10-13T04:57:22;98931.72;;;16.59;100.00
30554;BME280;17335;50.720;7.452;2023-10-13T04:59:52;98928.81;;;16.61;100.00
30554;BME280;17335;50.720;7.452;2023-10-13T05:02:41;98924.88;;;16.63;100.00
30554;BME280;17335;50.720;7.452;2023-10-13T05:05:21;98919.25;;;16.65;100.00
30554;BME280;17335;50.720;7.452;2023-10-13T05:08:06;98909.44;;;16.64;100.00
30554;BME280;17335;50.720;7.452;2023-10-13T05:10:50;98912.91;;;16.79;100.00
30554;BME280;17335;50.720;7.452;2023-10-13T05:13:35;98910.22;;;16.79;100.00
30554;BME280;17335;50.720;7.452;2023-10-13T05:16:20;98907.25;;;16.74;100.00
30554;BME280;17335;50.720;7.452;2023-10-13T05:19:06;98906.59;;;16.72;100.00
30554;BME280;17335;50.720;7.452;2023-10-13T05:21:51;98907.84;;;16.69;100.00
30554;BME280;17335;50.720;7.452;2023-10-13T05:24:36;98902.25;;;16.71;100.00
30554;BME280;17335;50.720;7.452;2023-10-13T05:27:21;98904.94;;;16.71;100.00
30554;BME280;17335;50.720;7.452;2023-10-13T05:30:06;98904.72;;;16.73;100.00
30554;BME280;17335;50.720;7.452;2023-10-13T05:32:51;98903.25;;;16.70;100.00
30554;BME280;17335;50.720;7.452;2023-10-13T05:35:36;98910.38;;;16.71;100.00
30554;BME280;17335;50.720;7.452;2023-10-13T05:38:21;98904.94;;;16.71;100.00
30554;BME280;17335;50.720;7.452;2023-10-13T05:41:06;98912.47;;;16.76;100.00
30554;BME280;17335;50.720;7.452;2023-10-13T05:43:52;98912.28;;;16.77;100.00
30554;BME280;17335;50.720;7.452;2023-10-13T05:46:57;98900.34;;;16.72;100.00
30554;BME280;17335;50.720;7.452;2023-10-13T05:49:42;98895.75;;;16.72;100.00
30554;BME280;17335;50.720;7.452;2023-10-13T05:52:16;98908.81;;;16.83;100.00
30554;BME280;17335;50.720;7.452;2023-10-13T05:55:06;98901.81;;;16.74;100.00
30554;BME280;17335;50.720;7.452;2023-10-13T05:57:51;98900.41;;;16.78;100.00
30554;BME280;17335;50.720;7.452;2023-10-13T06:00:39;98899.44;;;16.86;100.00
30554;BME280;17335;50.720;7.452;2023-10-13T06:03:24;98893.44;;;16.91;100.00
30554;BME280;17335;50.720;7.452;2023-10-13T06:06:10;98896.59;;;16.94;100.00
30554;BME280;17335;50.720;7.452;2023-10-13T06:08:55;98891.00;;;16.96;100.00
30554;BME280;17335;50.720;7.452;2023-10-13T06:11:40;98898.09;;;16.97;100.00
30554;BME280;17335;50.720;7.452;2023-10-13T06:14:25;98894.72;;;16.95;100.00
30554;BME280;17335;50.720;7.452;2023-10-13T06:17:10;98891.81;;;16.96;100.00
30554;BME280;17335;50.720;7.452;2023-10-13T06:19:56;98888.13;;;17.04;100.00
30554;BME280;17335;50.720;7.452;2023-10-13T06:22:41;98884.38;;;17.05;100.00
30554;BME280;17335;50.720;7.452;2023-10-13T06:25:28;98885.81;;;17.01;100.00
30554;BME280;17335;50.720;7.452;2023-10-13T06:28:13;98887.75;;;17.07;100.00
30554;BME280;17335;50.720;7.452;2023-10-13T06:30:59;98881.84;;;17.03;100.00
30554;BME280;17335;50.720;7.452;2023-10-13T06:33:29;98884.41;;;17.12;100.00
30554;BME280;17335;50.720;7.452;2023-10-13T06:35:56;98892.59;;;17.18;100.00
30554;BME280;17335;50.720;7.452;2023-10-13T06:38:23;98891.97;;;17.16;100.00
30554;BME280;17335;50.720;7.452;2023-10-13T06:40:57;98889.50;;;17.21;100.00
30554;BME280;17335;50.720;7.452;2023-10-13T06:43:24;98878.66;;;17.21;100.00
30554;BME280;17335;50.720;7.452;2023-10-13T06:45:53;98879.72;;;17.27;100.00
30554;BME280;17335;50.720;7.452;2023-10-13T06:48:30;98886.78;;;17.21;100.00
30554;BME280;17335;50.720;7.452;2023-10-13T06:51:07;98891.38;;;17.21;100.00
30554;BME280;17335;50.720;7.452;2023-10-13T06:53:53;98897.63;;;17.21;100.00
30554;BME280;17335;50.720;7.452;2023-10-13T06:56:23;98882.06;;;17.37;100.00
30554;BME280;17335;50.720;7.452;2023-10-13T06:58:57;98879.78;;;17.40;100.00
30554;BME280;17335;50.720;7.452;2023-10-13T07:01:27;98879.78;;;17.40;100.00
30554;BME280;17335;50.720;7.452;2023-10-13T07:03:54;98875.44;;;17.46;100.00
30554;BME280;17335;50.720;7.452;2023-10-13T07:06:21;98870.63;;;17.41;100.00
30554;BME280;17335;50.720;7.452;2023-10-13T07:08:48;98875.19;;;17.41;100.00
30554;BME280;17335;50.720;7.452;2023-10-13T07:11:23;98867.91;;;17.48;100.00
30554;BME280;17335;50.720;7.452;2023-10-13T07:14:03;98866.28;;;17.47;100.00
30554;BME280;17335;50.720;7.452;2023-10-13T07:16:56;98862.31;;;17.50;100.00
30554;BME280;17335;50.720;7.452;2023-10-13T07:19:26;98858.75;;;17.49;100.00
30554;BME280;17335;50.720;7.452;2023-10-13T07:21:56;98859.22;;;17.59;100.00
30554;BME280;17335;50.720;7.452;2023-10-13T07:24:26;98847.78;;;17.64;100.00
30554;BME280;17335;50.720;7.452;2023-10-13T07:27:00;98839.81;;;17.62;100.00
30554;BME280;17335;50.720;7.452;2023-10-13T07:29:32;98851.72;;;17.61;100.00
30554;BME280;17335;50.720;7.452;2023-10-13T07:32:03;98852.56;;;17.69;100.00
30554;BME280;17335;50.720;7.452;2023-10-13T07:34:30;98844.63;;;17.67;100.00
30554;BME280;17335;50.720;7.452;2023-10-13T07:36:59;98849.69;;;17.77;100.00
30554;BME280;17335;50.720;7.452;2023-10-13T07:39:30;98836.34;;;17.82;100.00
30554;BME280;17335;50.720;7.452;2023-10-13T07:42:01;98839.31;;;17.87;100.00
30554;BME280;17335;50.720;7.452;2023-10-13T07:44:32;98826.56;;;17.94;100.00
30554;BME280;17335;50.720;7.452;2023-10-13T07:47:03;98830.13;;;18.02;100.00
30554;BME280;17335;50.720;7.452;2023-10-13T07:49:38;98818.03;;;18.04;100.00
30554;BME280;17335;50.720;7.452;2023-10-13T07:52:10;98819.28;;;18.08;100.00
30554;BME280;17335;50.720;7.452;2023-10-13T07:54:48;98816.56;;;18.08;100.00
30554;BME280;17335;50.720;7.452;2023-10-13T07:57:34;98809.69;;;18.06;100.00
30554;BME280;17335;50.720;7.452;2023-10-13T08:00:00;98808.41;;;18.02;100.00
30554;BME280;17335;50.720;7.452;2023-10-13T08:02:37;98799.03;;;18.04;100.00
30554;BME280;17335;50.720;7.452;2023-10-13T08:05:17;98803.44;;;18.05;100.00
30554;BME280;17335;50.720;7.452;2023-10-13T08:08:08;98795.47;;;18.04;100.00
30554;BME280;17335;50.720;7.452;2023-10-13T08:10:41;98797.78;;;18.13;100.00
30554;BME280;17335;50.720;7.452;2023-10-13T08:13:11;98795.47;;;18.04;100.00
30554;BME280;17335;50.720;7.452;2023-10-13T08:15:42;98795.28;;;18.05;100.00
30554;BME280;17335;50.720;7.452;2023-10-13T08:18:16;98785.25;;;18.06;100.00
30554;BME280;17335;50.720;7.452;2023-10-13T08:21:02;98790.91;;;18.11;100.00
30554;BME280;17335;50.720;7.452;2023-10-13T08:23:30;98786.72;;;18.15;100.00
30554;BME280;17335;50.720;7.452;2023-10-13T08:26:16;98783.78;;;18.23;100.00
30554;BME280;17335;50.720;7.452;2023-10-13T08:29:03;98795.09;;;18.33;100.00
30554;BME280;17335;50.720;7.452;2023-10-13T08:31:50;98781.50;;;18.33;100.00
30554;BME280;17335;50.720;7.452;2023-10-13T08:34:33;98770.22;;;18.36;100.00
30554;BME280;17335;50.720;7.452;2023-10-13T08:37:05;98773.75;;;18.44;100.00
30554;BME280;17335;50.720;7.452;2023-10-13T08:39:56;98764.53;;;18.58;100.00
30554;BME280;17335;50.720;7.452;2023-10-13T08:42:53;98754.13;;;18.55;100.00
30554;BME280;17335;50.720;7.452;2023-10-13T08:45:30;98744.69;;;18.51;100.00
30554;BME280;17335;50.720;7.452;2023-10-13T08:47:58;98742.19;;;18.49;100.00
30554;BME280;17335;50.720;7.452;2023-10-13T08:50:50;98756.19;;;18.46;100.00
30554;BME280;17335;50.720;7.452;2023-10-13T08:53:26;98756.22;;;18.33;100.00
30554;BME280;17335;50.720;7.452;2023-10-13T08:56:13;98742.22;;;18.36;100.00
30554;BME280;17335;50.720;7.452;2023-10-13T09:01:26;98747.44;;;18.17;100.00
30554;BME280;17335;50.720;7.452;2023-10-13T09:04:16;98755.78;;;18.16;100.00
30554;BME280;17335;50.720;7.452;2023-10-13T09:06:58;98752.88;;;18.24;100.00
30554;BME280;17335;50.720;7.452;2023-10-13T09:09:49;98747.44;;;18.17;100.00
30554;BME280;17335;50.720;7.452;2023-10-13T09:12:29;98742.84;;;18.18;100.00
30554;BME280;17335;50.720;7.452;2023-10-13T09:15:00;98731.75;;;18.20;100.00
30554;BME280;17335;50.720;7.452;2023-10-13T09:17:40;98736.56;;;18.24;100.00
30554;BME280;17335;50.720;7.452;2023-10-13T09:20:09;98742.84;;;18.18;100.00
30554;BME280;17335;50.720;7.452;2023-10-13T09:22:59;98720.91;;;18.26;100.00
30554;BME280;17335;50.720;7.452;2023-10-13T09:25:36;98716.09;;;18.35;100.00
30554;BME280;17335;50.720;7.452;2023-10-13T09:28:04;98706.66;;;18.37;100.00
30554;BME280;17335;50.720;7.452;2023-10-13T09:33:11;98709.34;;;18.51;100.00
30554;BME280;17335;50.720;7.452;2023-10-13T09:35:46;98710.84;;;18.47;100.00
30554;BME280;17335;50.720;7.452;2023-10-13T09:38:16;98706.03;;;18.49;100.00
30554;BME280;17335;50.720;7.452;2023-10-13T09:40:44;98702.22;;;18.63;100.00
30554;BME280;17335;50.720;7.452;2023-10-13T09:43:17;98703.44;;;18.81;100.00
30554;BME280;17335;50.720;7.452;2023-10-13T09:45:49;98708.22;;;18.99;100.00
30554;BME280;17335;50.720;7.452;2023-10-13T09:48:32;98706.28;;;19.13;100.00
30554;BME280;17335;50.720;7.452;2023-10-13T09:51:04;98694.19;;;19.08;100.00
30554;BME280;17335;50.720;7.452;2023-10-13T09:53:36;98690.78;;;19.13;100.00
30554;BME280;17335;50.720;7.452;2023-10-13T09:56:28;98689.38;;;19.04;100.00
30554;BME280;17335;50.720;7.452;2023-10-13T09:59:01;98682.22;;;19.09;100.00
30554;BME280;17335;50.720;7.452;2023-10-13T10:01:40;98682.22;;;19.09;100.00
30554;BME280;17335;50.720;7.452;2023-10-13T10:04:18;98673.88;;;19.04;100.00
30554;BME280;17335;50.720;7.452;2023-10-13T10:09:33;98668.41;;;19.11;100.00
30554;BME280;17335;50.720;7.452;2023-10-13T10:12:14;98683.88;;;19.17;100.00
30554;BME280;17335;50.720;7.452;2023-10-13T10:17:23;98677.72;;;19.67;100.00
30554;BME280;17335;50.720;7.452;2023-10-13T10:19:52;98670.13;;;20.01;100.00
30554;BME280;17335;50.720;7.452;2023-10-13T10:22:30;98662.47;;;20.16;100.00
30554;BME280;17335;50.720;7.452;2023-10-13T10:25:03;98669.69;;;20.29;100.00
30554;BME280;17335;50.720;7.452;2023-10-13T10:27:59;98653.56;;;20.28;100.00
30554;BME280;17335;50.720;7.452;2023-10-13T10:30:27;98654.91;;;20.37;100.00
30554;BME280;17335;50.720;7.452;2023-10-13T10:32:55;98660.09;;;20.45;100.00
30554;BME280;17335;50.720;7.452;2023-10-13T10:37:54;98641.22;;;20.43;100.00
30554;BME280;17335;50.720;7.452;2023-10-13T10:40:29;98648.13;;;20.46;100.00
30554;BME280;17335;50.720;7.452;2023-10-13T10:43:13;98636.69;;;20.56;100.00
30554;BME280;17335;50.720;7.452;2023-10-13T10:45:59;98646.50;;;20.64;100.00
30554;BME280;17335;50.720;7.452;2023-10-13T10:48:31;98639.22;;;20.76;100.00
30554;BME280;17335;50.720;7.452;2023-10-13T10:50:59;98635.59;;;20.82;100.00
30554;BME280;17335;50.720;7.452;2023-10-13T10:53:34;98627.22;;;20.95;100.00
30554;BME280;17335;50.720;7.452;2023-10-13T10:56:11;98627.03;;;21.09;100.00
30554;BME280;17335;50.720;7.452;2023-10-13T10:58:47;98613.91;;;21.17;100.00
30554;BME280;17335;50.720;7.452;2023-10-13T11:01:15;98602.16;;;21.17;100.00
30554;BME280;17335;50.720;7.452;2023-10-13T11:03:55;98594.75;;;21.06;100.00
30554;BME280;17335;50.720;7.452;2023-10-13T11:06:26;98597.63;;;21.11;100.00
30554;BME280;17335;50.720;7.452;2023-10-13T11:09:03;98589.66;;;21.09;100.00
30554;BME280;17335;50.720;7.452;2023-10-13T11:11:30;98587.47;;;21.18;100.00
30554;BME280;17335;50.720;7.452;2023-10-13T11:14:02;98595.94;;;21.28;100.00
30554;BME280;17335;50.720;7.452;2023-10-13T11:16:47;98585.00;;;21.28;100.00
30554;BME280;17335;50.720;7.452;2023-10-13T11:19:17;98585.88;;;21.41;100.00
30554;BME280;17335;50.720;7.452;2023-10-13T11:21:52;98576.59;;;21.42;100.00
30554;BME280;17335;50.720;7.452;2023-10-13T11:24:20;98572.16;;;21.47;100.00
30554;BME280;17335;50.720;7.452;2023-10-13T11:26:49;98573.41;;;21.45;100.00
30554;BME280;17335;50.720;7.452;2023-10-13T11:29:17;98573.19;;;21.46;100.00
30554;BME280;17335;50.720;7.452;2023-10-13T11:31:46;98569.03;;;21.44;100.00
30554;BME280;17335;50.720;7.452;2023-10-13T11:34:20;98569.72;;;21.39;100.00
30554;BME280;17335;50.720;7.452;2023-10-13T11:36:47;98563.91;;;21.35;100.00
30554;BME280;17335;50.720;7.452;2023-10-13T11:39:13;98560.56;;;21.45;100.00
30554;BME280;17335;50.720;7.452;2023-10-13T11:41:44;98550.97;;;21.43;100.00
30554;BME280;17335;50.720;7.452;2023-10-13T11:44:20;98565.66;;;21.42;100.00
30554;BME280;17335;50.720;7.452;2023-10-13T11:46:47;98555.56;;;21.30;100.00
30554;BME280;17335;50.720;7.452;2023-10-13T11:49:14;98564.03;;;21.41;100.00
30554;BME280;17335;50.720;7.452;2023-10-13T11:51:48;98553.47;;;21.44;100.00
30554;BME280;17335;50.720;7.452;2023-10-13T11:54:19;98544.69;;;21.42;100.00
30554;BME280;17335;50.720;7.452;2023-10-13T11:56:49;98543.00;;;21.41;100.00
30554;BME280;17335;50.720;7.452;2023-10-13T11:59:15;98523.06;;;21.41;100.00
30554;BME280;17335;50.720;7.452;2023-10-13T12:01:45;98521.25;;;21.34;100.00
30554;BME280;17335;50.720;7.452;2023-10-13T12:04:30;98521.72;;;21.31;100.00
30554;BME280;17335;50.720;7.452;2023-10-13T12:07:16;98516.28;;;21.31;100.00
30554;BME280;17335;50.720;7.452;2023-10-13T12:10:11;98518.41;;;21.29;100.00
30554;BME280;17335;50.720;7.452;2023-10-13T12:13:00;98512.69;;;21.19;100.00
30554;BME280;17335;50.720;7.452;2023-10-13T12:15:33;98534.06;;;21.22;100.00
30554;BME280;17335;50.720;7.452;2023-10-13T12:18:15;98534.16;;;21.15;100.00
30554;BME280;17335;50.720;7.452;2023-10-13T12:20:42;98517.22;;;21.25;100.00
30554;BME280;17335;50.720;7.452;2023-10-13T12:23:12;98510.22;;;21.29;100.00
30554;BME280;17335;50.720;7.452;2023-10-13T12:25:43;98511.56;;;21.39;100.00
30554;BME280;17335;50.720;7.452;2023-10-13T12:28:26;98498.41;;;21.47;100.00
30554;BME280;17335;50.720;7.452;2023-10-13T12:30:55;98495.81;;;21.52;100.00
30554;BME280;17335;50.720;7.452;2023-10-13T12:33:24;98497.81;;;21.57;100.00
30554;BME280;17335;50.720;7.452;2023-10-13T12:35:57;98497.22;;;21.55;100.00
30554;BME280;17335;50.720;7.452;2023-10-13T12:38:36;98504.59;;;21.54;100.00
30554;BME280;17335;50.720;7.452;2023-10-13T12:41:18;98494.00;;;21.46;100.00
30554;BME280;17335;50.720;7.452;2023-10-13T12:44:05;98508.03;;;21.50;100.00
30554;BME280;17335;50.720;7.452;2023-10-13T12:46:52;98490.81;;;21.73;100.00
30554;BME280;17335;50.720;7.452;2023-10-13T12:49:38;98488.78;;;21.80;100.00
30554;BME280;17335;50.720;7.452;2023-10-13T12:52:08;98491.28;;;21.70;100.00
30554;BME280;17335;50.720;7.452;2023-10-13T12:54:52;98492.34;;;21.69;100.00
30554;BME280;17335;50.720;7.452;2023-10-13T12:57:26;98481.88;;;21.78;100.00
30554;BME280;17335;50.720;7.452;2023-10-13T12:59:53;98487.81;;;21.86;100.00
30554;BME280;17335;50.720;7.452;2023-10-13T13:02:24;98484.03;;;21.76;100.00
30554;BME280;17335;50.720;7.452;2023-10-13T13:04:53;98478.94;;;21.67;100.00
30554;BME280;17335;50.720;7.452;2023-10-13T13:07:32;98467.28;;;21.84;100.00
30554;BME280;17335;50.720;7.452;2023-10-13T13:10:14;98465.94;;;21.98;100.00
30554;BME280;17335;50.720;7.452;2023-10-13T13:12:41;98464.88;;;21.99;100.00
30554;BME280;17335;50.720;7.452;2023-10-13T13:15:08;98461.91;;;22.13;100.00
30554;BME280;17335;50.720;7.452;2023-10-13T13:17:36;98454.38;;;22.32;100.00
30554;BME280;17335;50.720;7.452;2023-10-13T13:20:03;98459.09;;;22.36;100.00
30554;BME280;17335;50.720;7.452;2023-10-13T13:22:38;98450.06;;;22.24;100.00
30554;BME280;17335;50.720;7.452;2023-10-13T13:25:05;98451.81;;;22.01;100.00
30554;BME280;17335;50.720;7.452;2023-10-13T13:27:35;98448.28;;;21.89;100.00
30554;BME280;17335;50.720;7.452;2023-10-13T13:30:04;98455.56;;;21.71;100.00
30554;BME280;17335;50.720;7.452;2023-10-13T13:32:39;98455.09;;;21.63;100.00
30554;BME280;17335;50.720;7.452;2023-10-13T13:35:07;98466.59;;;21.53;100.00
30554;BME280;17335;50.720;7.452;2023-10-13T13:37:35;98453.03;;;21.34;100.00
30554;BME280;17335;50.720;7.452;2023-10-13T13:40:04;98458.69;;;21.09;100.00
30554;BME280;17335;50.720;7.452;2023-10-13T13:42:42;98440.66;;;21.08;100.00
30554;BME280;17335;50.720;7.452;2023-10-13T13:45:16;98433.50;;;20.95;100.00
30554;BME280;17335;50.720;7.452;2023-10-13T13:47:49;98431.03;;;20.94;100.00
30554;BME280;17335;50.720;7.452;2023-10-13T13:50:21;98437.44;;;21.00;100.00
30554;BME280;17335;50.720;7.452;2023-10-13T13:52:55;98438.38;;;20.93;100.00